createdAt,value
2019-05-30T01:19:18.818Z,81.00
2019-05-30T01:24:23.210Z,81.00
2019-05-30T01:29:27.596Z,80.80
2019-05-30T01:34:33.948Z,81.00
2019-05-30T01:39:38.602Z,80.70
2019-05-30T01:44:43.010Z,80.80
2019-05-30T01:49:47.317Z,80.30
2019-05-30T01:54:51.706Z,80.60
2019-05-30T02:00:42.253Z,80.60
2019-05-30T02:05:49.892Z,81.10
2019-05-30T02:10:54.271Z,81.20
2019-05-30T02:15:59.593Z,81.50
2019-05-30T02:21:04.066Z,81.70
2019-05-30T02:26:08.390Z,82.20
2019-05-30T02:31:12.771Z,82.70
2019-05-30T02:36:17.157Z,84.20
2019-05-30T02:41:21.551Z,85.30
2019-05-30T02:46:25.991Z,86.40
2019-05-30T02:51:30.658Z,87.00
2019-05-30T02:56:35.052Z,88.10
2019-05-30T03:01:59.150Z,89.70
2019-05-30T03:06:45.688Z,90.10
2019-05-30T03:11:50.273Z,90.60
2019-05-30T03:16:54.591Z,91.20
2019-05-30T03:21:59.942Z,91.30
2019-05-30T03:27:04.892Z,91.60
2019-05-30T03:32:51.544Z,91.70
2019-05-30T03:37:27.834Z,91.90
2019-05-30T03:42:24.696Z,92.10
2019-05-30T03:47:32.728Z,92.40
2019-05-30T03:52:37.733Z,92.30
2019-05-30T03:57:49.478Z,92.60
2019-05-30T04:02:59.358Z,92.80
2019-05-30T04:08:07.180Z,93.10
2019-05-30T04:13:28.688Z,93.20
2019-05-30T04:18:33.048Z,93.40
2019-05-30T07:58:59.192Z,91.30
2019-05-30T08:04:03.510Z,91.20
2019-05-30T08:09:07.920Z,91.00
2019-05-30T08:14:12.251Z,91.00
2019-05-30T08:19:16.568Z,91.10
2019-05-30T08:24:20.981Z,91.10
2019-05-30T08:29:25.299Z,91.00
2019-05-30T08:34:30.438Z,90.80
2019-05-30T08:39:35.327Z,90.90
2019-05-30T08:44:40.119Z,90.70
2019-05-30T08:49:44.556Z,90.90
2019-05-30T08:54:48.885Z,90.90
2019-05-30T08:59:53.206Z,91.30
2019-05-30T09:04:57.602Z,91.20
2019-05-30T09:10:02.003Z,90.70
2019-05-30T09:15:10.313Z,90.60
2019-05-30T09:20:15.315Z,90.20
2019-05-30T09:25:22.182Z,90.00
2019-05-30T09:30:26.644Z,90.10
2019-05-30T09:35:30.956Z,89.50
2019-05-30T09:40:35.696Z,88.10
2019-05-30T09:45:41.159Z,87.30
2019-05-30T09:50:46.775Z,87.70
2019-05-30T09:55:51.612Z,87.50
2019-05-30T10:00:55.955Z,87.10
2019-05-30T10:06:00.378Z,87.60
2019-05-30T10:11:05.042Z,87.60
2019-05-30T10:16:09.451Z,87.70
2019-05-30T10:21:13.780Z,88.40
2019-05-30T10:26:18.211Z,88.40
2019-05-30T10:31:22.885Z,88.30
2019-05-30T10:36:27.216Z,88.70
2019-05-30T10:41:31.538Z,88.60
2019-05-30T10:46:35.922Z,87.00
2019-05-30T10:51:40.266Z,86.60
2019-05-30T10:56:45.154Z,86.80
2019-05-30T11:01:50.716Z,86.50
2019-05-30T11:07:11.618Z,86.80
2019-05-30T11:12:14.787Z,86.20
2019-05-30T11:17:19.261Z,82.90
2019-05-30T11:22:23.668Z,82.90
2019-05-30T11:27:28.073Z,81.50
2019-05-30T11:32:32.466Z,80.00
2019-05-30T11:37:36.777Z,77.20
2019-05-30T11:42:41.094Z,77.30
2019-05-30T11:47:45.518Z,76.70
2019-05-30T11:52:53.680Z,74.60
2019-05-30T11:57:58.466Z,76.40
2019-05-30T12:03:02.923Z,75.40
2019-05-30T12:08:07.318Z,74.00
2019-05-30T12:13:11.712Z,72.50
2019-05-30T12:18:16.031Z,71.50
2019-05-30T12:23:20.343Z,69.30
2019-05-30T12:28:24.980Z,68.20
2019-05-30T12:33:29.394Z,66.80
2019-05-30T12:38:34.087Z,64.70
2019-05-30T12:43:38.492Z,61.50
2019-05-30T12:48:42.890Z,60.50
2019-05-30T12:53:47.283Z,58.60
2019-05-30T12:58:51.676Z,57.70
2019-05-30T13:03:56.979Z,56.20
2019-05-30T13:09:01.483Z,52.90
2019-05-30T13:14:06.878Z,51.80
2019-05-30T13:19:11.355Z,49.20
2019-05-30T13:24:15.734Z,53.10
2019-05-30T13:29:20.126Z,51.40
2019-05-30T13:34:24.590Z,49.80
2019-05-30T13:39:29.078Z,53.20
2019-05-30T13:44:33.480Z,49.60
2019-05-30T13:49:38.074Z,49.40
2019-05-30T13:54:42.369Z,50.90
2019-05-30T13:59:46.997Z,50.40
2019-05-30T14:04:51.360Z,49.50
2019-05-30T14:09:55.742Z,51.30
2019-05-30T14:15:01.029Z,47.00
2019-05-30T14:20:11.325Z,47.50
2019-05-30T14:25:16.210Z,47.20
2019-05-30T14:30:21.018Z,48.40
2019-05-30T14:35:25.476Z,49.60
2019-05-30T14:40:29.896Z,47.30
2019-05-30T14:45:34.283Z,45.90
2019-05-30T14:50:38.679Z,43.90
2019-05-30T14:55:43.094Z,42.40
2019-05-30T15:00:47.478Z,42.50
2019-05-30T15:05:51.881Z,40.20
2019-05-30T15:10:56.266Z,42.40
2019-05-30T15:16:00.666Z,44.70
2019-05-30T15:21:06.180Z,45.60
2019-05-30T15:26:12.055Z,47.80
2019-05-30T15:31:16.675Z,49.70
2019-05-30T15:36:21.066Z,51.30
2019-05-30T15:41:25.458Z,52.80
2019-05-30T15:46:29.774Z,52.70
2019-05-30T15:51:34.076Z,53.10
2019-05-30T15:56:38.693Z,53.80
2019-05-30T16:01:43.096Z,53.30
2019-05-30T16:06:47.664Z,53.20
2019-05-30T16:11:52.106Z,52.90
2019-05-30T16:16:56.488Z,52.50
2019-05-30T16:22:00.884Z,52.70
2019-05-30T16:27:05.274Z,53.00
2019-05-30T16:32:09.663Z,54.40
2019-05-30T16:37:14.223Z,54.90
2019-05-30T16:42:18.751Z,54.20
2019-05-30T16:47:23.115Z,53.80
2019-05-30T16:52:27.507Z,52.70
2019-05-30T16:57:31.817Z,54.60
2019-05-30T17:02:36.125Z,55.40
2019-05-30T17:07:40.446Z,52.80
2019-05-30T17:12:44.834Z,52.00
2019-05-30T17:17:49.427Z,50.90
2019-05-30T17:22:54.172Z,51.10
2019-05-30T17:27:59.021Z,50.30
2019-05-30T17:33:03.359Z,51.00
2019-05-30T17:38:07.771Z,51.70
2019-05-30T17:43:12.167Z,52.90
2019-05-30T17:48:17.013Z,54.10
2019-05-30T17:53:21.716Z,55.80
2019-05-30T17:58:26.254Z,55.90
2019-05-30T18:03:30.691Z,56.20
2019-05-30T18:08:35.036Z,55.40
2019-05-30T18:13:39.461Z,55.70
2019-05-30T18:18:43.760Z,56.60
2019-05-30T18:23:48.142Z,57.90
2019-05-30T18:28:55.137Z,57.80
2019-05-30T18:33:59.731Z,59.10
2019-05-30T18:39:05.160Z,59.70
2019-05-30T18:44:09.501Z,59.90
2019-05-30T18:49:13.812Z,61.40
2019-05-30T18:54:18.191Z,61.80
2019-05-30T18:59:22.504Z,62.60
2019-05-30T19:04:27.469Z,63.20
2019-05-30T19:09:33.419Z,63.50
2019-05-30T19:14:37.879Z,63.30
2019-05-30T19:19:42.271Z,63.50
2019-05-30T19:24:46.679Z,63.90
2019-05-30T19:29:50.978Z,63.50
2019-05-30T19:34:55.385Z,64.50
2019-05-30T19:39:59.718Z,64.30
2019-05-30T19:45:06.743Z,64.70
2019-05-30T19:50:10.659Z,65.00
2019-05-30T19:55:15.070Z,66.00
2019-05-30T20:00:19.539Z,66.00
2019-05-30T20:05:23.838Z,66.10
2019-05-30T21:14:27.505Z,68.30
2019-05-30T21:19:30.122Z,68.20
2019-05-30T21:24:36.351Z,67.70
2019-05-30T21:29:41.161Z,67.60
2019-05-30T21:34:46.510Z,67.60
2019-05-30T21:39:51.414Z,67.90
2019-05-30T21:44:55.819Z,68.00
2019-05-30T21:50:00.210Z,68.10
2019-05-30T21:55:06.121Z,68.10
2019-05-30T22:00:20.964Z,68.00
2019-05-30T22:05:25.721Z,67.40
2019-05-30T22:10:30.026Z,67.50
2019-05-30T22:15:34.338Z,67.30
2019-05-30T22:20:38.653Z,67.60
2019-05-30T22:25:44.124Z,66.70
2019-05-30T22:30:48.566Z,67.00
2019-05-30T22:35:53.329Z,67.00
2019-05-30T22:41:17.282Z,67.60
2019-05-30T22:46:17.011Z,68.10
2019-05-30T22:51:21.325Z,68.20
2019-05-30T22:56:25.651Z,68.80
2019-05-30T23:01:30.308Z,68.40
2019-05-30T23:06:34.696Z,68.30
2019-05-30T23:11:39.084Z,68.30
2019-05-30T23:16:43.746Z,68.30
2019-05-30T23:21:48.724Z,69.00
2019-05-30T23:26:53.782Z,69.70
2019-05-30T23:31:58.370Z,68.90
2019-05-30T23:37:02.728Z,69.30
2019-05-30T23:42:07.121Z,69.40
2019-05-30T23:47:11.539Z,69.20
2019-05-30T23:52:15.867Z,70.10
2019-05-30T23:57:20.186Z,69.90
